sensor_id;sensor_type;location;lat;lon;timestamp;P1;durP1;ratioP1;P2;durP2;ratioP2
2119;SDS011;1066;52.540;13.420;2022-12-18T00:01:19;27.80;;;15.43;;
2119;SDS011;1066;52.540;13.420;2022-12-18T00:03:45;25.23;;;14.47;;
2119;SDS011;1066;52.540;13.420;2022-12-18T00:06:11;33.23;;;17.40;;
2119;SDS011;1066;52.540;13.420;2022-12-18T00:08:36;32.30;;;15.80;;
2119;SDS011;1066;52.540;13.420;2022-12-18T00:11:06;20.53;;;14.03;;
2119;SDS011;1066;52.540;13.420;2022-12-18T00:13:33;25.10;;;15.90;;
2119;SDS011;1066;52.540;13.420;2022-12-18T00:16:02;28.10;;;16.73;;
2119;SDS011;1066;52.540;13.420;2022-12-18T00:18:31;30.50;;;16.23;;
2119;SDS011;1066;52.540;13.420;2022-12-18T00:21:04;27.20;;;15.47;;
2119;SDS011;1066;52.540;13.420;2022-12-18T00:23:31;28.20;;;16.00;;
2119;SDS011;1066;52.540;13.420;2022-12-18T00:26:00;30.83;;;15.17;;
2119;SDS011;1066;52.540;13.420;2022-12-18T00:28:26;27.20;;;14.50;;
2119;SDS011;1066;52.540;13.420;2022-12-18T00:31:02;27.30;;;15.20;;
2119;SDS011;1066;52.540;13.420;2022-12-18T00:33:28;27.23;;;15.20;;
2119;SDS011;1066;52.540;13.420;2022-12-18T00:35:53;26.37;;;16.03;;
2119;SDS011;1066;52.540;13.420;2022-12-18T00:38:19;26.63;;;14.30;;
2119;SDS011;1066;52.540;13.420;2022-12-18T00:40:44;30.53;;;15.93;;
2119;SDS011;1066;52.540;13.420;2022-12-18T00:43:09;22.07;;;14.53;;
2119;SDS011;1066;52.540;13.420;2022-12-18T00:45:35;30.43;;;15.60;;
2119;SDS011;1066;52.540;13.420;2022-12-18T00:48:00;33.27;;;18.00;;
2119;SDS011;1066;52.540;13.420;2022-12-18T00:50:26;30.73;;;15.90;;
2119;SDS011;1066;52.540;13.420;2022-12-18T00:52:51;24.67;;;15.40;;
2119;SDS011;1066;52.540;13.420;2022-12-18T00:55:17;24.53;;;15.07;;
2119;SDS011;1066;52.540;13.420;2022-12-18T00:57:42;26.30;;;14.67;;
2119;SDS011;1066;52.540;13.420;2022-12-18T01:00:09;24.00;;;13.70;;
2119;SDS011;1066;52.540;13.420;2022-12-18T01:02:37;23.20;;;14.03;;
2119;SDS011;1066;52.540;13.420;2022-12-18T01:05:02;28.37;;;14.53;;
2119;SDS011;1066;52.540;13.420;2022-12-18T01:07:28;24.60;;;15.20;;
2119;SDS011;1066;52.540;13.420;2022-12-18T01:09:53;25.87;;;13.70;;
2119;SDS011;1066;52.540;13.420;2022-12-18T01:12:22;22.75;;;14.07;;
2119;SDS011;1066;52.540;13.420;2022-12-18T01:14:48;24.20;;;15.83;;
2119;SDS011;1066;52.540;13.420;2022-12-18T01:17:13;22.83;;;15.07;;
2119;SDS011;1066;52.540;13.420;2022-12-18T01:19:39;25.33;;;14.50;;
2119;SDS011;1066;52.540;13.420;2022-12-18T01:22:04;26.40;;;13.53;;
2119;SDS011;1066;52.540;13.420;2022-12-18T01:24:30;22.83;;;13.50;;
2119;SDS011;1066;52.540;13.420;2022-12-18T01:26:55;29.13;;;13.57;;
2119;SDS011;1066;52.540;13.420;2022-12-18T01:29:22;25.85;;;13.98;;
2119;SDS011;1066;52.540;13.420;2022-12-18T01:31:47;28.53;;;13.43;;
2119;SDS011;1066;52.540;13.420;2022-12-18T01:34:13;23.77;;;13.00;;
2119;SDS011;1066;52.540;13.420;2022-12-18T01:36:38;26.33;;;13.50;;
2119;SDS011;1066;52.540;13.420;2022-12-18T01:39:09;24.25;;;13.57;;
2119;SDS011;1066;52.540;13.420;2022-12-18T01:41:36;20.17;;;12.85;;
2119;SDS011;1066;52.540;13.420;2022-12-18T01:47:18;25.63;;;13.68;;
2119;SDS011;1066;52.540;13.420;2022-12-18T01:49:45;25.13;;;14.18;;
2119;SDS011;1066;52.540;13.420;2022-12-18T01:52:11;22.20;;;11.67;;
2119;SDS011;1066;52.540;13.420;2022-12-18T01:54:36;22.07;;;12.80;;
2119;SDS011;1066;52.540;13.420;2022-12-18T01:57:02;20.60;;;11.93;;
2119;SDS011;1066;52.540;13.420;2022-12-18T01:59:27;24.30;;;13.23;;
2119;SDS011;1066;52.540;13.420;2022-12-18T02:01:53;23.70;;;13.33;;
2119;SDS011;1066;52.540;13.420;2022-12-18T02:04:25;20.23;;;11.83;;
2119;SDS011;1066;52.540;13.420;2022-12-18T02:06:54;24.17;;;14.73;;
2119;SDS011;1066;52.540;13.420;2022-12-18T02:09:28;23.08;;;14.43;;
2119;SDS011;1066;52.540;13.420;2022-12-18T02:14:44;23.88;;;12.45;;
2119;SDS011;1066;52.540;13.420;2022-12-18T02:17:29;27.47;;;14.57;;
2119;SDS011;1066;52.540;13.420;2022-12-18T02:20:21;23.33;;;14.50;;
2119;SDS011;1066;52.540;13.420;2022-12-18T02:23:01;27.50;;;15.02;;
2119;SDS011;1066;52.540;13.420;2022-12-18T02:28:28;34.85;;;16.65;;
2119;SDS011;1066;52.540;13.420;2022-12-18T02:30:56;35.33;;;15.30;;
2119;SDS011;1066;52.540;13.420;2022-12-18T02:33:23;31.15;;;18.33;;
2119;SDS011;1066;52.540;13.420;2022-12-18T02:35:49;34.17;;;18.15;;
2119;SDS011;1066;52.540;13.420;2022-12-18T02:38:16;44.00;;;19.83;;
2119;SDS011;1066;52.540;13.420;2022-12-18T02:40:41;33.70;;;18.53;;
2119;SDS011;1066;52.540;13.420;2022-12-18T02:43:12;40.80;;;20.83;;
2119;SDS011;1066;52.540;13.420;2022-12-18T02:45:49;39.90;;;21.23;;
2119;SDS011;1066;52.540;13.420;2022-12-18T02:48:22;38.65;;;18.80;;
2119;SDS011;1066;52.540;13.420;2022-12-18T02:53:37;47.58;;;22.15;;
2119;SDS011;1066;52.540;13.420;2022-12-18T02:56:13;34.75;;;18.92;;
2119;SDS011;1066;52.540;13.420;2022-12-18T02:58:47;37.60;;;19.33;;
2119;SDS011;1066;52.540;13.420;2022-12-18T03:01:40;36.92;;;16.85;;
2119;SDS011;1066;52.540;13.420;2022-12-18T03:04:14;35.00;;;19.27;;
2119;SDS011;1066;52.540;13.420;2022-12-18T03:06:43;43.83;;;21.52;;
2119;SDS011;1066;52.540;13.420;2022-12-18T03:09:13;39.83;;;19.87;;
2119;SDS011;1066;52.540;13.420;2022-12-18T03:11:43;39.83;;;21.00;;
2119;SDS011;1066;52.540;13.420;2022-12-18T03:14:31;45.33;;;20.80;;
2119;SDS011;1066;52.540;13.420;2022-12-18T03:17:00;50.42;;;21.65;;
2119;SDS011;1066;52.540;13.420;2022-12-18T03:19:28;52.33;;;23.90;;
2119;SDS011;1066;52.540;13.420;2022-12-18T03:21:55;45.10;;;21.58;;
2119;SDS011;1066;52.540;13.420;2022-12-18T03:24:21;48.28;;;22.50;;
2119;SDS011;1066;52.540;13.420;2022-12-18T03:26:49;53.15;;;24.15;;
2119;SDS011;1066;52.540;13.420;2022-12-18T03:32:11;48.80;;;24.00;;
2119;SDS011;1066;52.540;13.420;2022-12-18T03:34:41;49.58;;;25.45;;
2119;SDS011;1066;52.540;13.420;2022-12-18T03:37:07;45.95;;;22.75;;
2119;SDS011;1066;52.540;13.420;2022-12-18T03:39:33;40.47;;;20.70;;
2119;SDS011;1066;52.540;13.420;2022-12-18T03:42:07;41.33;;;24.07;;
2119;SDS011;1066;52.540;13.420;2022-12-18T03:44:43;38.53;;;19.50;;
2119;SDS011;1066;52.540;13.420;2022-12-18T03:49:51;43.17;;;20.65;;
2119;SDS011;1066;52.540;13.420;2022-12-18T03:54:49;34.85;;;18.67;;
2119;SDS011;1066;52.540;13.420;2022-12-18T03:57:17;33.60;;;17.27;;
2119;SDS011;1066;52.540;13.420;2022-12-18T03:59:44;30.40;;;18.80;;
2119;SDS011;1066;52.540;13.420;2022-12-18T04:02:10;31.60;;;18.05;;
2119;SDS011;1066;52.540;13.420;2022-12-18T04:04:36;32.93;;;17.07;;
2119;SDS011;1066;52.540;13.420;2022-12-18T04:07:02;32.87;;;17.00;;
2119;SDS011;1066;52.540;13.420;2022-12-18T04:09:28;34.70;;;17.73;;
2119;SDS011;1066;52.540;13.420;2022-12-18T04:11:55;32.67;;;17.23;;
2119;SDS011;1066;52.540;13.420;2022-12-18T04:14:20;32.77;;;17.37;;
2119;SDS011;1066;52.540;13.420;2022-12-18T04:16:46;33.33;;;17.17;;
2119;SDS011;1066;52.540;13.420;2022-12-18T04:19:11;31.50;;;16.50;;
2119;SDS011;1066;52.540;13.420;2022-12-18T04:21:36;28.97;;;15.33;;
2119;SDS011;1066;52.540;13.420;2022-12-18T04:24:02;24.80;;;14.03;;
2119;SDS011;1066;52.540;13.420;2022-12-18T04:26:27;29.17;;;16.03;;
2119;SDS011;1066;52.540;13.420;2022-12-18T04:28:53;33.57;;;17.37;;
2119;SDS011;1066;52.540;13.420;2022-12-18T04:31:18;35.23;;;18.93;;
2119;SDS011;1066;52.540;13.420;2022-12-18T04:33:43;29.50;;;15.90;;
2119;SDS011;1066;52.540;13.420;2022-12-18T04:36:09;30.03;;;14.80;;
2119;SDS011;1066;52.540;13.420;2022-12-18T04:38:34;28.93;;;16.30;;
2119;SDS011;1066;52.540;13.420;2022-12-18T04:40:59;27.60;;;14.83;;
2119;SDS011;1066;52.540;13.420;2022-12-18T04:43:25;29.33;;;16.30;;
2119;SDS011;1066;52.540;13.420;2022-12-18T04:45:50;32.60;;;16.17;;
2119;SDS011;1066;52.540;13.420;2022-12-18T04:48:15;28.03;;;16.20;;
2119;SDS011;1066;52.540;13.420;2022-12-18T04:50:41;28.97;;;16.40;;
2119;SDS011;1066;52.540;13.420;2022-12-18T04:53:06;31.30;;;14.07;;
2119;SDS011;1066;52.540;13.420;2022-12-18T04:55:31;27.90;;;15.13;;
2119;SDS011;1066;52.540;13.420;2022-12-18T04:57:57;25.17;;;13.70;;
2119;SDS011;1066;52.540;13.420;2022-12-18T05:00:22;27.63;;;16.00;;
2119;SDS011;1066;52.540;13.420;2022-12-18T05:02:48;24.93;;;14.40;;
2119;SDS011;1066;52.540;13.420;2022-12-18T05:05:14;28.30;;;14.63;;
2119;SDS011;1066;52.540;13.420;2022-12-18T05:07:39;25.02;;;13.88;;
2119;SDS011;1066;52.540;13.420;2022-12-18T05:10:05;30.03;;;15.17;;
2119;SDS011;1066;52.540;13.420;2022-12-18T05:12:33;26.70;;;13.65;;
2119;SDS011;1066;52.540;13.420;2022-12-18T05:14:58;31.60;;;16.47;;
2119;SDS011;1066;52.540;13.420;2022-12-18T05:17:24;19.80;;;12.33;;
2119;SDS011;1066;52.540;13.420;2022-12-18T05:19:49;27.20;;;16.07;;
2119;SDS011;1066;52.540;13.420;2022-12-18T05:22:14;27.77;;;15.90;;
2119;SDS011;1066;52.540;13.420;2022-12-18T05:24:40;27.10;;;14.77;;
2119;SDS011;1066;52.540;13.420;2022-12-18T05:27:05;22.77;;;12.23;;
2119;SDS011;1066;52.540;13.420;2022-12-18T05:29:31;25.80;;;15.40;;
2119;SDS011;1066;52.540;13.420;2022-12-18T05:31:56;23.40;;;14.43;;
2119;SDS011;1066;52.540;13.420;2022-12-18T05:34:21;29.10;;;14.67;;
2119;SDS011;1066;52.540;13.420;2022-12-18T05:36:47;27.77;;;14.63;;
2119;SDS011;1066;52.540;13.420;2022-12-18T05:39:12;33.23;;;13.47;;
2119;SDS011;1066;52.540;13.420;2022-12-18T05:41:37;27.10;;;13.70;;
2119;SDS011;1066;52.540;13.420;2022-12-18T05:44:03;29.53;;;14.90;;
2119;SDS011;1066;52.540;13.420;2022-12-18T05:46:28;22.33;;;13.00;;
2119;SDS011;1066;52.540;13.420;2022-12-18T05:48:54;24.77;;;14.07;;
2119;SDS011;1066;52.540;13.420;2022-12-18T05:51:20;23.83;;;12.80;;
2119;SDS011;1066;52.540;13.420;2022-12-18T05:53:47;25.05;;;15.15;;
2119;SDS011;1066;52.540;13.420;2022-12-18T05:56:14;28.98;;;15.43;;
2119;SDS011;1066;52.540;13.420;2022-12-18T05:58:42;29.52;;;14.27;;
2119;SDS011;1066;52.540;13.420;2022-12-18T06:01:18;30.03;;;14.70;;
2119;SDS011;1066;52.540;13.420;2022-12-18T06:03:51;33.25;;;17.83;;
2119;SDS011;1066;52.540;13.420;2022-12-18T06:06:20;25.57;;;16.20;;
2119;SDS011;1066;52.540;13.420;2022-12-18T06:08:47;30.60;;;16.48;;
2119;SDS011;1066;52.540;13.420;2022-12-18T06:11:13;30.93;;;15.13;;
2119;SDS011;1066;52.540;13.420;2022-12-18T06:13:41;30.50;;;16.92;;
2119;SDS011;1066;52.540;13.420;2022-12-18T06:16:07;35.93;;;17.03;;
2119;SDS011;1066;52.540;13.420;2022-12-18T06:18:33;39.43;;;15.97;;
2119;SDS011;1066;52.540;13.420;2022-12-18T06:20:59;40.57;;;19.20;;
2119;SDS011;1066;52.540;13.420;2022-12-18T06:23:24;41.63;;;18.77;;
2119;SDS011;1066;52.540;13.420;2022-12-18T06:25:50;33.20;;;17.37;;
2119;SDS011;1066;52.540;13.420;2022-12-18T06:28:16;40.53;;;18.23;;
2119;SDS011;1066;52.540;13.420;2022-12-18T06:30:44;32.63;;;17.20;;
2119;SDS011;1066;52.540;13.420;2022-12-18T06:33:10;31.25;;;16.73;;
2119;SDS011;1066;52.540;13.420;2022-12-18T06:35:36;39.27;;;19.10;;
2119;SDS011;1066;52.540;13.420;2022-12-18T06:38:01;27.30;;;15.40;;
2119;SDS011;1066;52.540;13.420;2022-12-18T06:40:27;35.05;;;17.10;;
2119;SDS011;1066;52.540;13.420;2022-12-18T06:42:52;38.50;;;18.43;;
2119;SDS011;1066;52.540;13.420;2022-12-18T06:45:18;31.97;;;17.03;;
2119;SDS011;1066;52.540;13.420;2022-12-18T06:47:43;34.67;;;16.90;;
2119;SDS011;1066;52.540;13.420;2022-12-18T06:50:08;33.20;;;17.60;;
2119;SDS011;1066;52.540;13.420;2022-12-18T06:52:34;30.03;;;17.73;;
2119;SDS011;1066;52.540;13.420;2022-12-18T06:54:59;37.83;;;19.50;;
2119;SDS011;1066;52.540;13.420;2022-12-18T06:57:25;32.43;;;16.23;;
2119;SDS011;1066;52.540;13.420;2022-12-18T06:59:50;42.33;;;18.50;;
2119;SDS011;1066;52.540;13.420;2022-12-18T07:02:15;33.23;;;16.93;;
2119;SDS011;1066;52.540;13.420;2022-12-18T07:04:41;36.37;;;19.70;;
2119;SDS011;1066;52.540;13.420;2022-12-18T07:07:06;34.77;;;18.33;;
2119;SDS011;1066;52.540;13.420;2022-12-18T07:09:32;32.13;;;17.23;;
2119;SDS011;1066;52.540;13.420;2022-12-18T07:11:57;33.80;;;17.10;;
2119;SDS011;1066;52.540;13.420;2022-12-18T07:14:22;29.83;;;16.40;;
2119;SDS011;1066;52.540;13.420;2022-12-18T07:16:48;38.50;;;18.80;;
2119;SDS011;1066;52.540;13.420;2022-12-18T07:19:13;37.90;;;18.80;;
2119;SDS011;1066;52.540;13.420;2022-12-18T07:21:38;35.87;;;17.83;;
2119;SDS011;1066;52.540;13.420;2022-12-18T07:24:04;38.33;;;17.20;;
2119;SDS011;1066;52.540;13.420;2022-12-18T07:26:30;35.33;;;17.20;;
2119;SDS011;1066;52.540;13.420;2022-12-18T07:28:56;33.37;;;16.47;;
2119;SDS011;1066;52.540;13.420;2022-12-18T07:31:23;33.20;;;16.02;;
2119;SDS011;1066;52.540;13.420;2022-12-18T07:33:49;27.85;;;16.30;;
2119;SDS011;1066;52.540;13.420;2022-12-18T07:36:15;33.88;;;16.65;;
2119;SDS011;1066;52.540;13.420;2022-12-18T07:38:41;31.17;;;16.63;;
2119;SDS011;1066;52.540;13.420;2022-12-18T07:43:33;34.03;;;16.98;;
2119;SDS011;1066;52.540;13.420;2022-12-18T07:45:58;29.80;;;16.67;;
2119;SDS011;1066;52.540;13.420;2022-12-18T07:48:24;25.70;;;15.77;;
2119;SDS011;1066;52.540;13.420;2022-12-18T07:50:49;32.70;;;15.73;;
2119;SDS011;1066;52.540;13.420;2022-12-18T07:53:15;36.83;;;16.20;;
2119;SDS011;1066;52.540;13.420;2022-12-18T07:55:43;33.77;;;17.57;;
2119;SDS011;1066;52.540;13.420;2022-12-18T07:58:08;33.40;;;15.77;;
2119;SDS011;1066;52.540;13.420;2022-12-18T08:00:34;37.17;;;19.03;;
2119;SDS011;1066;52.540;13.420;2022-12-18T08:03:00;36.80;;;16.58;;
2119;SDS011;1066;52.540;13.420;2022-12-18T08:05:26;31.67;;;15.35;;
2119;SDS011;1066;52.540;13.420;2022-12-18T08:07:52;30.47;;;16.20;;
2119;SDS011;1066;52.540;13.420;2022-12-18T08:10:18;29.37;;;15.33;;
2119;SDS011;1066;52.540;13.420;2022-12-18T08:12:44;32.13;;;16.05;;
2119;SDS011;1066;52.540;13.420;2022-12-18T08:15:09;32.33;;;15.73;;
2119;SDS011;1066;52.540;13.420;2022-12-18T08:17:35;27.53;;;16.77;;
2119;SDS011;1066;52.540;13.420;2022-12-18T08:20:00;37.93;;;16.50;;
2119;SDS011;1066;52.540;13.420;2022-12-18T08:22:26;28.47;;;15.30;;
2119;SDS011;1066;52.540;13.420;2022-12-18T08:24:51;34.73;;;17.03;;
2119;SDS011;1066;52.540;13.420;2022-12-18T08:27:16;28.00;;;15.47;;
2119;SDS011;1066;52.540;13.420;2022-12-18T08:29:42;26.20;;;14.90;;
2119;SDS011;1066;52.540;13.420;2022-12-18T08:32:07;30.30;;;16.20;;
2119;SDS011;1066;52.540;13.420;2022-12-18T08:34:32;30.77;;;16.80;;
2119;SDS011;1066;52.540;13.420;2022-12-18T08:36:57;28.60;;;16.50;;
2119;SDS011;1066;52.540;13.420;2022-12-18T08:39:23;31.07;;;14.80;;
2119;SDS011;1066;52.540;13.420;2022-12-18T08:41:48;25.03;;;14.17;;
2119;SDS011;1066;52.540;13.420;2022-12-18T08:44:33;25.17;;;14.07;;
2119;SDS011;1066;52.540;13.420;2022-12-18T08:47:05;28.65;;;15.05;;
2119;SDS011;1066;52.540;13.420;2022-12-18T08:49:31;26.00;;;13.65;;
2119;SDS011;1066;52.540;13.420;2022-12-18T08:51:57;23.30;;;12.73;;
2119;SDS011;1066;52.540;13.420;2022-12-18T08:54:22;25.60;;;15.10;;
2119;SDS011;1066;52.540;13.420;2022-12-18T08:56:48;26.97;;;14.60;;
2119;SDS011;1066;52.540;13.420;2022-12-18T08:59:14;23.88;;;14.32;;
2119;SDS011;1066;52.540;13.420;2022-12-18T09:01:40;28.30;;;15.17;;
2119;SDS011;1066;52.540;13.420;2022-12-18T09:04:05;26.93;;;15.17;;
2119;SDS011;1066;52.540;13.420;2022-12-18T09:06:31;24.30;;;15.20;;
2119;SDS011;1066;52.540;13.420;2022-12-18T09:08:56;27.27;;;13.67;;
2119;SDS011;1066;52.540;13.420;2022-12-18T09:11:23;31.13;;;14.07;;
2119;SDS011;1066;52.540;13.420;2022-12-18T09:13:49;27.58;;;16.33;;
2119;SDS011;1066;52.540;13.420;2022-12-18T09:16:15;28.67;;;14.90;;
2119;SDS011;1066;52.540;13.420;2022-12-18T09:18:41;25.67;;;14.35;;
2119;SDS011;1066;52.540;13.420;2022-12-18T09:21:11;26.30;;;16.13;;
2119;SDS011;1066;52.540;13.420;2022-12-18T09:23:40;24.67;;;14.10;;
2119;SDS011;1066;52.540;13.420;2022-12-18T09:26:06;27.63;;;15.50;;
2119;SDS011;1066;52.540;13.420;2022-12-18T09:28:31;27.37;;;14.80;;
2119;SDS011;1066;52.540;13.420;2022-12-18T09:30:57;34.00;;;16.27;;
2119;SDS011;1066;52.540;13.420;2022-12-18T09:33:22;23.03;;;13.57;;
2119;SDS011;1066;52.540;13.420;2022-12-18T09:35:47;34.50;;;15.17;;
2119;SDS011;1066;52.540;13.420;2022-12-18T09:38:13;23.67;;;13.20;;
2119;SDS011;1066;52.540;13.420;2022-12-18T09:40:48;32.90;;;15.35;;
2119;SDS011;1066;52.540;13.420;2022-12-18T09:43:17;31.88;;;15.57;;
2119;SDS011;1066;52.540;13.420;2022-12-18T09:45:44;33.90;;;15.88;;
2119;SDS011;1066;52.540;13.420;2022-12-18T09:48:15;32.20;;;16.20;;
2119;SDS011;1066;52.540;13.420;2022-12-18T09:50:46;26.73;;;14.73;;
2119;SDS011;1066;52.540;13.420;2022-12-18T09:53:15;27.67;;;16.03;;
2119;SDS011;1066;52.540;13.420;2022-12-18T09:55:45;23.35;;;13.38;;
2119;SDS011;1066;52.540;13.420;2022-12-18T09:58:24;29.55;;;15.15;;
2119;SDS011;1066;52.540;13.420;2022-12-18T10:00:52;27.40;;;16.33;;
2119;SDS011;1066;52.540;13.420;2022-12-18T10:03:18;24.25;;;14.48;;
2119;SDS011;1066;52.540;13.420;2022-12-18T10:13:53;28.85;;;15.90;;
2119;SDS011;1066;52.540;13.420;2022-12-18T10:16:25;33.10;;;15.77;;
2119;SDS011;1066;52.540;13.420;2022-12-18T10:24:41;32.63;;;14.35;;
2119;SDS011;1066;52.540;13.420;2022-12-18T10:27:16;27.75;;;13.80;;
2119;SDS011;1066;52.540;13.420;2022-12-18T10:29:47;27.40;;;14.73;;
2119;SDS011;1066;52.540;13.420;2022-12-18T10:32:19;25.63;;;13.20;;
2119;SDS011;1066;52.540;13.420;2022-12-18T10:34:52;27.20;;;15.10;;
2119;SDS011;1066;52.540;13.420;2022-12-18T10:37:21;27.95;;;14.48;;
2119;SDS011;1066;52.540;13.420;2022-12-18T10:42:34;24.75;;;14.10;;
2119;SDS011;1066;52.540;13.420;2022-12-18T10:45:33;26.70;;;14.70;;
2119;SDS011;1066;52.540;13.420;2022-12-18T10:47:51;27.55;;;15.35;;
2119;SDS011;1066;52.540;13.420;2022-12-18T10:50:33;30.60;;;15.70;;
2119;SDS011;1066;52.540;13.420;2022-12-18T10:53:00;29.38;;;14.65;;
2119;SDS011;1066;52.540;13.420;2022-12-18T10:55:29;30.70;;;17.47;;
2119;SDS011;1066;52.540;13.420;2022-12-18T10:58:41;30.93;;;15.87;;
2119;SDS011;1066;52.540;13.420;2022-12-18T11:01:03;34.58;;;15.88;;
2119;SDS011;1066;52.540;13.420;2022-12-18T11:03:41;33.72;;;17.85;;
2119;SDS011;1066;52.540;13.420;2022-12-18T11:08:46;29.67;;;16.03;;
2119;SDS011;1066;52.540;13.420;2022-12-18T11:11:26;36.80;;;16.13;;
2119;SDS011;1066;52.540;13.420;2022-12-18T11:14:13;37.13;;;16.13;;
2119;SDS011;1066;52.540;13.420;2022-12-18T11:16:57;28.52;;;15.90;;
2119;SDS011;1066;52.540;13.420;2022-12-18T11:19:26;30.42;;;14.65;;
2119;SDS011;1066;52.540;13.420;2022-12-18T11:21:56;30.67;;;17.83;;
2119;SDS011;1066;52.540;13.420;2022-12-18T11:24:32;30.50;;;16.87;;
2119;SDS011;1066;52.540;13.420;2022-12-18T11:27:00;27.85;;;14.98;;
2119;SDS011;1066;52.540;13.420;2022-12-18T11:29:37;22.80;;;14.77;;
2119;SDS011;1066;52.540;13.420;2022-12-18T11:32:19;29.27;;;16.60;;
2119;SDS011;1066;52.540;13.420;2022-12-18T11:34:50;22.57;;;13.20;;
2119;SDS011;1066;52.540;13.420;2022-12-18T11:37:20;22.43;;;12.93;;
2119;SDS011;1066;52.540;13.420;2022-12-18T11:39:46;23.83;;;13.17;;
2119;SDS011;1066;52.540;13.420;2022-12-18T11:42:35;32.63;;;15.23;;
2119;SDS011;1066;52.540;13.420;2022-12-18T11:47:56;29.30;;;13.83;;
2119;SDS011;1066;52.540;13.420;2022-12-18T11:50:47;26.97;;;13.80;;
2119;SDS011;1066;52.540;13.420;2022-12-18T11:53:16;21.57;;;13.60;;
2119;SDS011;1066;52.540;13.420;2022-12-18T11:55:49;26.83;;;15.67;;
2119;SDS011;1066;52.540;13.420;2022-12-18T11:58:27;24.33;;;13.95;;
2119;SDS011;1066;52.540;13.420;2022-12-18T12:11:39;27.27;;;15.63;;
2119;SDS011;1066;52.540;13.420;2022-12-18T12:14:59;30.60;;;16.37;;
2119;SDS011;1066;52.540;13.420;2022-12-18T12:17:42;26.05;;;14.32;;
2119;SDS011;1066;52.540;13.420;2022-12-18T12:22:51;27.03;;;14.10;;
2119;SDS011;1066;52.540;13.420;2022-12-18T12:25:57;24.47;;;13.93;;
2119;SDS011;1066;52.540;13.420;2022-12-18T12:36:30;22.90;;;14.07;;
2119;SDS011;1066;52.540;13.420;2022-12-18T12:39:08;24.20;;;13.47;;
2119;SDS011;1066;52.540;13.420;2022-12-18T12:41:37;22.90;;;14.97;;
2119;SDS011;1066;52.540;13.420;2022-12-18T12:44:23;23.40;;;12.07;;
2119;SDS011;1066;52.540;13.420;2022-12-18T12:46:55;26.33;;;13.53;;
2119;SDS011;1066;52.540;13.420;2022-12-18T12:49:22;21.53;;;12.17;;
2119;SDS011;1066;52.540;13.420;2022-12-18T12:51:50;23.80;;;13.83;;
2119;SDS011;1066;52.540;13.420;2022-12-18T12:54:23;23.27;;;13.23;;
2119;SDS011;1066;52.540;13.420;2022-12-18T12:59:45;24.50;;;14.20;;
2119;SDS011;1066;52.540;13.420;2022-12-18T13:07:47;22.20;;;12.70;;
2119;SDS011;1066;52.540;13.420;2022-12-18T13:20:46;23.52;;;13.18;;
2119;SDS011;1066;52.540;13.420;2022-12-18T13:31:12;27.65;;;13.88;;
2119;SDS011;1066;52.540;13.420;2022-12-18T13:33:42;22.57;;;12.67;;
2119;SDS011;1066;52.540;13.420;2022-12-18T13:36:11;21.00;;;13.43;;
2119;SDS011;1066;52.540;13.420;2022-12-18T13:38:46;24.58;;;15.52;;
2119;SDS011;1066;52.540;13.420;2022-12-18T13:48:55;26.90;;;14.73;;
2119;SDS011;1066;52.540;13.420;2022-12-18T13:51:46;26.92;;;15.57;;
2119;SDS011;1066;52.540;13.420;2022-12-18T13:56:57;23.55;;;14.48;;
2119;SDS011;1066;52.540;13.420;2022-12-18T13:59:24;25.87;;;14.73;;
2119;SDS011;1066;52.540;13.420;2022-12-18T14:01:56;27.35;;;14.65;;
2119;SDS011;1066;52.540;13.420;2022-12-18T14:04:24;21.43;;;14.00;;
2119;SDS011;1066;52.540;13.420;2022-12-18T14:06:52;27.40;;;15.82;;
2119;SDS011;1066;52.540;13.420;2022-12-18T14:09:23;28.60;;;18.00;;
2119;SDS011;1066;52.540;13.420;2022-12-18T14:11:50;26.73;;;15.90;;
2119;SDS011;1066;52.540;13.420;2022-12-18T14:14:17;21.47;;;15.07;;
2119;SDS011;1066;52.540;13.420;2022-12-18T14:16:43;22.95;;;14.93;;
2119;SDS011;1066;52.540;13.420;2022-12-18T14:19:13;22.13;;;14.57;;
2119;SDS011;1066;52.540;13.420;2022-12-18T14:21:40;30.27;;;17.70;;
2119;SDS011;1066;52.540;13.420;2022-12-18T14:26:35;26.27;;;16.00;;
2119;SDS011;1066;52.540;13.420;2022-12-18T14:29:17;30.40;;;18.93;;
2119;SDS011;1066;52.540;13.420;2022-12-18T14:31:44;28.67;;;15.88;;
2119;SDS011;1066;52.540;13.420;2022-12-18T14:34:16;29.03;;;16.60;;
2119;SDS011;1066;52.540;13.420;2022-12-18T14:36:41;27.15;;;14.70;;
2119;SDS011;1066;52.540;13.420;2022-12-18T14:39:17;21.13;;;14.45;;
2119;SDS011;1066;52.540;13.420;2022-12-18T14:41:43;22.17;;;14.00;;
2119;SDS011;1066;52.540;13.420;2022-12-18T14:44:10;33.30;;;16.10;;
2119;SDS011;1066;52.540;13.420;2022-12-18T14:46:44;21.98;;;13.60;;
2119;SDS011;1066;52.540;13.420;2022-12-18T14:51:48;21.10;;;13.57;;
2119;SDS011;1066;52.540;13.420;2022-12-18T14:54:18;21.80;;;13.50;;
2119;SDS011;1066;52.540;13.420;2022-12-18T14:56:45;18.73;;;12.88;;
2119;SDS011;1066;52.540;13.420;2022-12-18T14:59:13;18.58;;;11.73;;
2119;SDS011;1066;52.540;13.420;2022-12-18T15:01:58;25.13;;;13.27;;
2119;SDS011;1066;52.540;13.420;2022-12-18T15:04:34;20.58;;;12.65;;
2119;SDS011;1066;52.540;13.420;2022-12-18T15:07:09;15.30;;;11.07;;
2119;SDS011;1066;52.540;13.420;2022-12-18T15:09:39;20.75;;;12.75;;
2119;SDS011;1066;52.540;13.420;2022-12-18T15:12:15;19.23;;;13.18;;
2119;SDS011;1066;52.540;13.420;2022-12-18T15:15:04;24.15;;;14.35;;
2119;SDS011;1066;52.540;13.420;2022-12-18T15:17:30;16.30;;;12.77;;
2119;SDS011;1066;52.540;13.420;2022-12-18T15:19:59;21.77;;;12.60;;
2119;SDS011;1066;52.540;13.420;2022-12-18T15:22:27;17.20;;;11.73;;
2119;SDS011;1066;52.540;13.420;2022-12-18T15:24:54;21.08;;;14.25;;
2119;SDS011;1066;52.540;13.420;2022-12-18T15:27:31;22.40;;;14.25;;
2119;SDS011;1066;52.540;13.420;2022-12-18T15:32:35;22.92;;;15.18;;
2119;SDS011;1066;52.540;13.420;2022-12-18T15:37:44;21.17;;;13.70;;
2119;SDS011;1066;52.540;13.420;2022-12-18T15:40:14;20.27;;;14.20;;
2119;SDS011;1066;52.540;13.420;2022-12-18T15:42:40;22.80;;;14.50;;
2119;SDS011;1066;52.540;13.420;2022-12-18T15:45:24;20.95;;;13.55;;
2119;SDS011;1066;52.540;13.420;2022-12-18T15:47:49;17.93;;;12.73;;
2119;SDS011;1066;52.540;13.420;2022-12-18T15:50:15;21.80;;;12.47;;
2119;SDS011;1066;52.540;13.420;2022-12-18T15:52:44;19.83;;;13.20;;
2119;SDS011;1066;52.540;13.420;2022-12-18T15:55:15;24.00;;;15.63;;
2119;SDS011;1066;52.540;13.420;2022-12-18T15:58:04;21.00;;;14.50;;
2119;SDS011;1066;52.540;13.420;2022-12-18T16:00:31;17.58;;;13.35;;
2119;SDS011;1066;52.540;13.420;2022-12-18T16:02:56;20.75;;;13.68;;
2119;SDS011;1066;52.540;13.420;2022-12-18T16:05:22;19.97;;;14.50;;
2119;SDS011;1066;52.540;13.420;2022-12-18T16:07:48;26.48;;;14.18;;
2119;SDS011;1066;52.540;13.420;2022-12-18T16:10:13;20.70;;;13.00;;
2119;SDS011;1066;52.540;13.420;2022-12-18T16:12:39;17.77;;;13.50;;
2119;SDS011;1066;52.540;13.420;2022-12-18T16:15:06;23.33;;;13.30;;
2119;SDS011;1066;52.540;13.420;2022-12-18T16:17:32;18.70;;;12.03;;
2119;SDS011;1066;52.540;13.420;2022-12-18T16:19:57;20.60;;;14.83;;
2119;SDS011;1066;52.540;13.420;2022-12-18T16:22:23;18.53;;;13.07;;
2119;SDS011;1066;52.540;13.420;2022-12-18T16:24:50;18.95;;;12.65;;
2119;SDS011;1066;52.540;13.420;2022-12-18T16:27:16;19.15;;;13.13;;
2119;SDS011;1066;52.540;13.420;2022-12-18T16:29:42;18.47;;;12.20;;
2119;SDS011;1066;52.540;13.420;2022-12-18T16:32:08;19.67;;;12.30;;
2119;SDS011;1066;52.540;13.420;2022-12-18T16:34:37;18.02;;;13.05;;
2119;SDS011;1066;52.540;13.420;2022-12-18T16:37:03;24.90;;;14.50;;